sensor_id;sensor_type;location;lat;lon;timestamp;pressure;altitude;pressure_sealevel;temperature;humidity
6853;BME280;3465;42.144;24.722;2023-04-01T00:00:54;145744.19;;;11.31;95.94
6853;BME280;3465;42.144;24.722;2023-04-01T00:03:21;145793.09;;;11.50;95.96
6853;BME280;3465;42.144;24.722;2023-04-01T00:05:47;145790.59;;;11.49;96.69
6853;BME280;3465;42.144;24.722;2023-04-01T00:08:13;145740.44;;;11.29;97.89
6853;BME280;3465;42.144;24.722;2023-04-01T00:10:38;145774.31;;;11.43;97.75
6853;BME280;3465;42.144;24.722;2023-04-01T00:13:04;145771.75;;;11.42;97.44
6853;BME280;3465;42.144;24.722;2023-04-01T00:15:29;145746.72;;;11.32;96.88
6853;BME280;3465;42.144;24.722;2023-04-01T00:17:55;145731.66;;;11.26;96.93
6853;BME280;3465;42.144;24.722;2023-04-01T00:20:21;145756.75;;;11.36;96.45
6853;BME280;3465;42.144;24.722;2023-04-01T00:22:47;145771.75;;;11.42;95.87
6853;BME280;3465;42.144;24.722;2023-04-01T00:25:13;145744.19;;;11.31;98.08
6853;BME280;3465;42.144;24.722;2023-04-01T00:27:38;145744.19;;;11.31;98.30
6853;BME280;3465;42.144;24.722;2023-04-01T00:30:05;145729.19;;;11.25;99.08
6853;BME280;3465;42.144;24.722;2023-04-01T00:32:30;145714.16;;;11.19;99.64
6853;BME280;3465;42.144;24.722;2023-04-01T00:34:56;145674.06;;;11.03;98.07
6853;BME280;3465;42.144;24.722;2023-04-01T00:37:24;145690.34;;;11.09;97.84
6853;BME280;3465;42.144;24.722;2023-04-01T00:39:49;145684.06;;;11.07;97.97
6853;BME280;3465;42.144;24.722;2023-04-01T00:42:15;145662.75;;;10.98;98.16
6853;BME280;3465;42.144;24.722;2023-04-01T00:44:41;145661.53;;;10.98;97.71
6853;BME280;3465;42.144;24.722;2023-04-01T00:47:07;145646.50;;;10.92;97.22
6853;BME280;3465;42.144;24.722;2023-04-01T00:49:37;145680.31;;;11.05;96.84
6853;BME280;3465;42.144;24.722;2023-04-01T00:52:07;145691.56;;;11.10;97.07
6853;BME280;3465;42.144;24.722;2023-04-01T00:54:34;145675.28;;;11.03;98.64
6853;BME280;3465;42.144;24.722;2023-04-01T00:57:09;145684.06;;;11.07;99.43
6853;BME280;3465;42.144;24.722;2023-04-01T00:59:42;145690.34;;;11.09;99.83
6853;BME280;3465;42.144;24.722;2023-04-01T01:02:11;145660.25;;;10.97;100.00
6853;BME280;3465;42.144;24.722;2023-04-01T01:04:36;145686.59;;;11.08;99.35
6853;BME280;3465;42.144;24.722;2023-04-01T01:09:45;145676.53;;;11.04;98.47
6853;BME280;3465;42.144;24.722;2023-04-01T01:12:21;145617.69;;;10.80;98.45
6853;BME280;3465;42.144;24.722;2023-04-01T01:17:29;145651.47;;;10.94;98.05
6853;BME280;3465;42.144;24.722;2023-04-01T01:34:40;145598.88;;;10.73;94.01
6853;BME280;3465;42.144;24.722;2023-04-01T01:37:17;145578.81;;;10.65;94.12
6853;BME280;3465;42.144;24.722;2023-04-01T01:39:54;145576.34;;;10.64;93.90
6853;BME280;3465;42.144;24.722;2023-04-01T01:42:20;145576.34;;;10.64;93.97
6853;BME280;3465;42.144;24.722;2023-04-01T01:44:50;145581.38;;;10.66;94.35
6853;BME280;3465;42.144;24.722;2023-04-01T01:47:16;145581.38;;;10.66;94.26
6853;BME280;3465;42.144;24.722;2023-04-01T01:49:44;145563.81;;;10.59;94.95
6853;BME280;3465;42.144;24.722;2023-04-01T01:52:11;145528.75;;;10.45;94.75
6853;BME280;3465;42.144;24.722;2023-04-01T01:54:47;145466.19;;;10.20;95.85
6853;BME280;3465;42.144;24.722;2023-04-01T01:57:14;145393.53;;;9.90;96.46
6853;BME280;3465;42.144;24.722;2023-04-01T01:59:42;145478.66;;;10.25;96.39
6853;BME280;3465;42.144;24.722;2023-04-01T02:02:09;145486.22;;;10.28;96.74
6853;BME280;3465;42.144;24.722;2023-04-01T02:04:40;145502.44;;;10.34;96.08
6853;BME280;3465;42.144;24.722;2023-04-01T02:07:12;145493.72;;;10.31;96.79
6853;BME280;3465;42.144;24.722;2023-04-01T02:09:40;145449.91;;;10.13;97.59
6853;BME280;3465;42.144;24.722;2023-04-01T02:12:08;145474.91;;;10.23;97.78
6853;BME280;3465;42.144;24.722;2023-04-01T02:17:13;145488.69;;;10.29;97.74
6853;BME280;3465;42.144;24.722;2023-04-01T02:19:46;145479.91;;;10.25;98.01
6853;BME280;3465;42.144;24.722;2023-04-01T02:22:16;145473.69;;;10.23;97.84
6853;BME280;3465;42.144;24.722;2023-04-01T02:24:43;145483.66;;;10.27;98.05
6853;BME280;3465;42.144;24.722;2023-04-01T02:27:10;145479.91;;;10.25;98.58
6853;BME280;3465;42.144;24.722;2023-04-01T02:29:36;145517.50;;;10.40;97.18
6853;BME280;3465;42.144;24.722;2023-04-01T02:32:02;145458.63;;;10.17;98.45
6853;BME280;3465;42.144;24.722;2023-04-01T02:34:28;145441.13;;;10.09;99.23
6853;BME280;3465;42.144;24.722;2023-04-01T02:36:55;145432.31;;;10.06;99.48
6853;BME280;3465;42.144;24.722;2023-04-01T02:39:21;145428.56;;;10.04;100.00
6853;BME280;3465;42.144;24.722;2023-04-01T02:41:47;145453.66;;;10.15;99.57
6853;BME280;3465;42.144;24.722;2023-04-01T02:44:15;145463.66;;;10.19;99.48
6853;BME280;3465;42.144;24.722;2023-04-01T02:46:40;145434.78;;;10.07;99.71
6853;BME280;3465;42.144;24.722;2023-04-01T02:49:06;145428.56;;;10.04;100.00
6853;BME280;3465;42.144;24.722;2023-04-01T02:51:33;145418.53;;;10.00;100.00
6853;BME280;3465;42.144;24.722;2023-04-01T02:53:59;145411.00;;;9.97;100.00
6853;BME280;3465;42.144;24.722;2023-04-01T02:56:24;145404.78;;;9.95;100.00
6853;BME280;3465;42.144;24.722;2023-04-01T02:58:51;145398.50;;;9.92;100.00
6853;BME280;3465;42.144;24.722;2023-04-01T03:01:16;145403.50;;;9.94;100.00
6853;BME280;3465;42.144;24.722;2023-04-01T03:03:42;145388.50;;;9.88;100.00
6853;BME280;3465;42.144;24.722;2023-04-01T03:06:12;145397.28;;;9.92;100.00
6853;BME280;3465;42.144;24.722;2023-04-01T03:08:38;145288.41;;;9.48;100.00
6853;BME280;3465;42.144;24.722;2023-04-01T03:11:04;145343.44;;;9.70;100.00
6853;BME280;3465;42.144;24.722;2023-04-01T03:13:30;145313.44;;;9.58;100.00
6853;BME280;3465;42.144;24.722;2023-04-01T03:15:55;145344.72;;;9.71;100.00
6853;BME280;3465;42.144;24.722;2023-04-01T03:18:21;145323.41;;;9.62;100.00
6853;BME280;3465;42.144;24.722;2023-04-01T03:20:46;145298.38;;;9.52;100.00
6853;BME280;3465;42.144;24.722;2023-04-01T03:23:12;145315.91;;;9.59;100.00
6853;BME280;3465;42.144;24.722;2023-04-01T03:25:37;145313.44;;;9.58;100.00
6853;BME280;3465;42.144;24.722;2023-04-01T03:28:03;145288.41;;;9.48;100.00
6853;BME280;3465;42.144;24.722;2023-04-01T03:30:29;145308.41;;;9.56;100.00
6853;BME280;3465;42.144;24.722;2023-04-01T03:32:58;145312.16;;;9.58;100.00
6853;BME280;3465;42.144;24.722;2023-04-01T03:35:24;145307.16;;;9.56;100.00
6853;BME280;3465;42.144;24.722;2023-04-01T03:37:51;145300.91;;;9.53;100.00
6853;BME280;3465;42.144;24.722;2023-04-01T03:40:17;145280.91;;;9.45;100.00
6853;BME280;3465;42.144;24.722;2023-04-01T03:42:42;145283.38;;;9.46;100.00
6853;BME280;3465;42.144;24.722;2023-04-01T03:45:08;145300.91;;;9.53;100.00
6853;BME280;3465;42.144;24.722;2023-04-01T03:47:34;145295.91;;;9.51;100.00
6853;BME280;3465;42.144;24.722;2023-04-01T03:50:00;145293.41;;;9.50;100.00
6853;BME280;3465;42.144;24.722;2023-04-01T03:52:25;145250.84;;;9.33;100.00
6853;BME280;3465;42.144;24.722;2023-04-01T03:54:50;145243.34;;;9.30;100.00
6853;BME280;3465;42.144;24.722;2023-04-01T03:57:16;145259.63;;;9.37;100.00
6853;BME280;3465;42.144;24.722;2023-04-01T03:59:41;145252.13;;;9.34;100.00
6853;BME280;3465;42.144;24.722;2023-04-01T04:02:06;145234.59;;;9.27;100.00
6853;BME280;3465;42.144;24.722;2023-04-01T04:04:32;145253.38;;;9.34;100.00
6853;BME280;3465;42.144;24.722;2023-04-01T04:06:57;145262.09;;;9.38;100.00
6853;BME280;3465;42.144;24.722;2023-04-01T04:09:23;145248.38;;;9.32;100.00
6853;BME280;3465;42.144;24.722;2023-04-01T04:11:49;145294.63;;;9.51;100.00
6853;BME280;3465;42.144;24.722;2023-04-01T04:14:15;145275.88;;;9.43;100.00
6853;BME280;3465;42.144;24.722;2023-04-01T04:16:40;145273.41;;;9.42;100.00
6853;BME280;3465;42.144;24.722;2023-04-01T04:19:05;145269.66;;;9.41;100.00
6853;BME280;3465;42.144;24.722;2023-04-01T04:21:31;145273.41;;;9.42;100.00
6853;BME280;3465;42.144;24.722;2023-04-01T04:23:58;145293.41;;;9.50;100.00
6853;BME280;3465;42.144;24.722;2023-04-01T04:26:24;145290.88;;;9.49;100.00
6853;BME280;3465;42.144;24.722;2023-04-01T04:28:49;145340.97;;;9.69;100.00
6853;BME280;3465;42.144;24.722;2023-04-01T04:31:19;145355.97;;;9.75;100.00
6853;BME280;3465;42.144;24.722;2023-04-01T04:33:45;145377.25;;;9.84;100.00
6853;BME280;3465;42.144;24.722;2023-04-01T04:36:11;145389.78;;;9.89;100.00
6853;BME280;3465;42.144;24.722;2023-04-01T04:38:36;145418.53;;;10.00;100.00
6853;BME280;3465;42.144;24.722;2023-04-01T04:41:02;145383.50;;;9.86;100.00
6853;BME280;3465;42.144;24.722;2023-04-01T04:43:27;145433.56;;;10.06;100.00
6853;BME280;3465;42.144;24.722;2023-04-01T04:45:52;145404.78;;;9.95;100.00
6853;BME280;3465;42.144;24.722;2023-04-01T04:48:18;145428.56;;;10.04;100.00
6853;BME280;3465;42.144;24.722;2023-04-01T04:50:49;145448.63;;;10.13;100.00
6853;BME280;3465;42.144;24.722;2023-04-01T04:53:16;145471.16;;;10.22;100.00
6853;BME280;3465;42.144;24.722;2023-04-01T04:55:46;145468.66;;;10.21;100.00
6853;BME280;3465;42.144;24.722;2023-04-01T04:58:12;145469.94;;;10.21;100.00
6853;BME280;3465;42.144;24.722;2023-04-01T05:00:38;145497.47;;;10.32;100.00
6853;BME280;3465;42.144;24.722;2023-04-01T05:03:03;145521.25;;;10.42;100.00
6853;BME280;3465;42.144;24.722;2023-04-01T05:05:28;145548.78;;;10.53;100.00
6853;BME280;3465;42.144;24.722;2023-04-01T05:07:54;145571.31;;;10.62;100.00
6853;BME280;3465;42.144;24.722;2023-04-01T05:10:19;145610.19;;;10.77;100.00
6853;BME280;3465;42.144;24.722;2023-04-01T05:12:46;145638.94;;;10.89;100.00
6853;BME280;3465;42.144;24.722;2023-04-01T05:15:11;145666.53;;;11.00;100.00
6853;BME280;3465;42.144;24.722;2023-04-01T05:17:37;145660.25;;;10.97;100.00
6853;BME280;3465;42.144;24.722;2023-04-01T05:20:02;145613.94;;;10.79;100.00
6853;BME280;3465;42.144;24.722;2023-04-01T05:22:28;145622.66;;;10.82;100.00
6853;BME280;3465;42.144;24.722;2023-04-01T05:24:53;145623.94;;;10.83;100.00
6853;BME280;3465;42.144;24.722;2023-04-01T05:27:19;145660.25;;;10.97;99.56
6853;BME280;3465;42.144;24.722;2023-04-01T05:29:44;145571.31;;;10.62;98.89
6853;BME280;3465;42.144;24.722;2023-04-01T05:32:10;145636.47;;;10.88;99.11
6853;BME280;3465;42.144;24.722;2023-04-01T05:34:35;145621.44;;;10.82;99.31
6853;BME280;3465;42.144;24.722;2023-04-01T05:37:00;145616.41;;;10.80;99.00
6853;BME280;3465;42.144;24.722;2023-04-01T05:39:26;145566.34;;;10.60;99.68
6853;BME280;3465;42.144;24.722;2023-04-01T05:41:51;145591.34;;;10.70;100.00
6853;BME280;3465;42.144;24.722;2023-04-01T05:44:17;145541.28;;;10.50;100.00
6853;BME280;3465;42.144;24.722;2023-04-01T05:46:42;145519.97;;;10.41;100.00
6853;BME280;3465;42.144;24.722;2023-04-01T05:49:08;145519.97;;;10.41;100.00
6853;BME280;3465;42.144;24.722;2023-04-01T05:51:33;145531.25;;;10.46;100.00
6853;BME280;3465;42.144;24.722;2023-04-01T05:53:58;145547.53;;;10.52;100.00
6853;BME280;3465;42.144;24.722;2023-04-01T05:56:24;145552.53;;;10.54;100.00
6853;BME280;3465;42.144;24.722;2023-04-01T05:58:53;145533.78;;;10.47;100.00
6853;BME280;3465;42.144;24.722;2023-04-01T06:01:19;145560.06;;;10.57;100.00
6853;BME280;3465;42.144;24.722;2023-04-01T06:03:44;145586.38;;;10.68;100.00
6853;BME280;3465;42.144;24.722;2023-04-01T06:06:20;145606.41;;;10.76;100.00
6853;BME280;3465;42.144;24.722;2023-04-01T06:08:48;145641.47;;;10.90;100.00
6853;BME280;3465;42.144;24.722;2023-04-01T06:11:34;145655.22;;;10.95;100.00
6853;BME280;3465;42.144;24.722;2023-04-01T06:34:14;145689.06;;;11.09;100.00
6853;BME280;3465;42.144;24.722;2023-04-01T06:42:50;145740.44;;;11.29;100.00
6853;BME280;3465;42.144;24.722;2023-04-01T06:45:30;145769.28;;;11.41;100.00
6853;BME280;3465;42.144;24.722;2023-04-01T06:53:10;145824.47;;;11.63;100.00
6853;BME280;3465;42.144;24.722;2023-04-01T06:55:47;145903.41;;;11.95;100.00
6853;BME280;3465;42.144;24.722;2023-04-01T06:58:34;145900.94;;;11.94;100.00
6853;BME280;3465;42.144;24.722;2023-04-01T07:01:04;145942.31;;;12.10;99.61
6853;BME280;3465;42.144;24.722;2023-04-01T07:03:38;145938.56;;;12.09;99.37
6853;BME280;3465;42.144;24.722;2023-04-01T07:06:10;145892.16;;;11.90;100.00
6853;BME280;3465;42.144;24.722;2023-04-01T07:08:39;145922.25;;;12.02;100.00
6853;BME280;3465;42.144;24.722;2023-04-01T07:11:10;145892.16;;;11.90;100.00
6853;BME280;3465;42.144;24.722;2023-04-01T07:13:45;145912.22;;;11.98;100.00
6853;BME280;3465;42.144;24.722;2023-04-01T07:16:42;145942.31;;;12.10;99.94
6853;BME280;3465;42.144;24.722;2023-04-01T07:19:15;145947.34;;;12.12;100.00
6853;BME280;3465;42.144;24.722;2023-04-01T07:21:52;145996.22;;;12.32;99.54
6853;BME280;3465;42.144;24.722;2023-04-01T07:24:35;146066.50;;;12.60;98.08
6853;BME280;3465;42.144;24.722;2023-04-01T07:27:02;146132.97;;;12.86;96.10
6853;BME280;3465;42.144;24.722;2023-04-01T07:29:28;146090.31;;;12.69;96.83
6853;BME280;3465;42.144;24.722;2023-04-01T07:45:23;146117.91;;;12.80;97.60
6853;BME280;3465;42.144;24.722;2023-04-01T07:51:40;146082.81;;;12.66;100.00
6853;BME280;3465;42.144;24.722;2023-04-01T07:53:48;146192.03;;;13.10;97.20
6853;BME280;3465;42.144;24.722;2023-04-01T07:56:31;146256.03;;;13.36;95.59
6853;BME280;3465;42.144;24.722;2023-04-01T07:59:21;146187.00;;;13.08;95.69
6853;BME280;3465;42.144;24.722;2023-04-01T08:10:51;146082.81;;;12.66;98.52
6853;BME280;3465;42.144;24.722;2023-04-01T08:21:25;146143.03;;;12.90;97.27
6853;BME280;3465;42.144;24.722;2023-04-01T08:23:56;146146.78;;;12.92;97.30
6853;BME280;3465;42.144;24.722;2023-04-01T08:28:56;146100.34;;;12.73;99.28
6853;BME280;3465;42.144;24.722;2023-04-01T08:31:38;146079.03;;;12.65;100.00
6853;BME280;3465;42.144;24.722;2023-04-01T08:34:10;146042.66;;;12.50;99.82
6853;BME280;3465;42.144;24.722;2023-04-01T08:36:50;146130.47;;;12.85;99.76
6853;BME280;3465;42.144;24.722;2023-04-01T08:39:31;146170.69;;;13.02;99.37
6853;BME280;3465;42.144;24.722;2023-04-01T08:45:28;146257.25;;;13.36;97.03
6853;BME280;3465;42.144;24.722;2023-04-01T08:53:03;146379.06;;;13.85;94.08
6853;BME280;3465;42.144;24.722;2023-04-01T08:55:44;146436.88;;;14.08;92.84
6853;BME280;3465;42.144;24.722;2023-04-01T09:01:14;146554.97;;;14.55;89.83
6853;BME280;3465;42.144;24.722;2023-04-01T09:03:51;146553.75;;;14.55;87.98
6853;BME280;3465;42.144;24.722;2023-04-01T09:06:31;146538.66;;;14.49;88.61
6853;BME280;3465;42.144;24.722;2023-04-01T09:17:45;146472.03;;;14.22;89.43
6853;BME280;3465;42.144;24.722;2023-04-01T09:23:20;146353.94;;;13.75;91.10
6853;BME280;3465;42.144;24.722;2023-04-01T09:32:00;146338.88;;;13.69;92.97
6853;BME280;3465;42.144;24.722;2023-04-01T09:40:18;146423.03;;;14.02;90.41
6853;BME280;3465;42.144;24.722;2023-04-01T09:50:58;146539.91;;;14.49;87.98
6853;BME280;3465;42.144;24.722;2023-04-01T09:53:53;146587.66;;;14.68;88.23
6853;BME280;3465;42.144;24.722;2023-04-01T10:15:27;146768.72;;;15.40;81.96
6853;BME280;3465;42.144;24.722;2023-04-01T10:18:39;146854.25;;;15.74;79.99
6853;BME280;3465;42.144;24.722;2023-04-01T10:32:42;146957.41;;;16.16;76.66
6853;BME280;3465;42.144;24.722;2023-04-01T10:38:31;146937.28;;;16.08;77.94
6853;BME280;3465;42.144;24.722;2023-04-01T10:47:12;146966.22;;;16.19;77.22
6853;BME280;3465;42.144;24.722;2023-04-01T10:55:14;147084.59;;;16.66;75.19
6853;BME280;3465;42.144;24.722;2023-04-01T10:58:14;147170.19;;;17.00;73.74
6853;BME280;3465;42.144;24.722;2023-04-01T11:01:01;147182.78;;;17.05;73.18
6853;BME280;3465;42.144;24.722;2023-04-01T11:06:57;147574.75;;;18.62;66.27
6853;BME280;3465;42.144;24.722;2023-04-01T11:18:20;147832.09;;;19.64;60.74
6853;BME280;3465;42.144;24.722;2023-04-01T11:20:57;147761.47;;;19.36;62.07
6853;BME280;3465;42.144;24.722;2023-04-01T11:34:37;148264.06;;;21.36;54.73
6853;BME280;3465;42.144;24.722;2023-04-01T11:42:54;148367.72;;;21.77;53.03
6853;BME280;3465;42.144;24.722;2023-04-01T11:45:50;148289.31;;;21.46;53.45
6853;BME280;3465;42.144;24.722;2023-04-01T11:48:35;148143.97;;;20.88;55.79
6853;BME280;3465;42.144;24.722;2023-04-01T11:51:26;148323.47;;;21.59;54.16
6853;BME280;3465;42.144;24.722;2023-04-01T11:54:06;148496.69;;;22.28;52.60
6853;BME280;3465;42.144;24.722;2023-04-01T12:02:33;148262.78;;;21.35;54.35
6853;BME280;3465;42.144;24.722;2023-04-01T12:07:52;148089.69;;;20.66;57.07
6853;BME280;3465;42.144;24.722;2023-04-01T12:13:36;147846.00;;;19.69;60.19
6853;BME280;3465;42.144;24.722;2023-04-01T12:16:13;147770.31;;;19.39;60.76
6853;BME280;3465;42.144;24.722;2023-04-01T12:19:15;147694.53;;;19.09;62.91
6853;BME280;3465;42.144;24.722;2023-04-01T12:22:00;147910.34;;;19.95;61.34
6853;BME280;3465;42.144;24.722;2023-04-01T12:35:52;149106.88;;;24.70;47.54
6853;BME280;3465;42.144;24.722;2023-04-01T12:46:51;148606.75;;;22.72;51.34
6853;BME280;3465;42.144;24.722;2023-04-01T13:09:51;148300.69;;;21.50;56.28
6853;BME280;3465;42.144;24.722;2023-04-01T13:15:22;148519.41;;;22.37;52.14
6853;BME280;3465;42.144;24.722;2023-04-01T13:21:10;148365.22;;;21.76;52.32
6853;BME280;3465;42.144;24.722;2023-04-01T13:24:21;148247.66;;;21.29;52.95
6853;BME280;3465;42.144;24.722;2023-04-01T13:26:58;148154.09;;;20.92;54.29
6853;BME280;3465;42.144;24.722;2023-04-01T13:29:59;147991.19;;;20.27;55.02
6853;BME280;3465;42.144;24.722;2023-04-01T13:32:50;147967.22;;;20.18;56.40
6853;BME280;3465;42.144;24.722;2023-04-01T13:35:34;147784.16;;;19.45;58.52
6853;BME280;3465;42.144;24.722;2023-04-01T13:40:48;147529.34;;;18.43;63.54
6853;BME280;3465;42.144;24.722;2023-04-01T13:43:28;147476.41;;;18.22;65.42
6853;BME280;3465;42.144;24.722;2023-04-01T13:56:12;147250.78;;;17.33;71.65
6853;BME280;3465;42.144;24.722;2023-04-01T14:02:00;147186.56;;;17.07;73.32
6853;BME280;3465;42.144;24.722;2023-04-01T14:12:48;147126.13;;;16.83;81.70
6853;BME280;3465;42.144;24.722;2023-04-01T14:20:59;147180.28;;;17.04;78.01
6853;BME280;3465;42.144;24.722;2023-04-01T14:23:51;147244.50;;;17.30;75.93
6853;BME280;3465;42.144;24.722;2023-04-01T14:26:40;147288.63;;;17.48;74.96
6853;BME280;3465;42.144;24.722;2023-04-01T14:29:28;147316.34;;;17.59;75.63
6853;BME280;3465;42.144;24.722;2023-04-01T14:34:53;147313.84;;;17.58;74.98
6853;BME280;3465;42.144;24.722;2023-04-01T14:41:42;147274.75;;;17.42;75.36
6853;BME280;3465;42.144;24.722;2023-04-01T14:49:39;147184.03;;;17.06;77.94
6853;BME280;3465;42.144;24.722;2023-04-01T14:52:24;147224.34;;;17.22;77.45
6853;BME280;3465;42.144;24.722;2023-04-01T14:54:52;147244.50;;;17.30;79.16
6853;BME280;3465;42.144;24.722;2023-04-01T14:57:27;147174.00;;;17.02;82.71
6853;BME280;3465;42.144;24.722;2023-04-01T15:02:59;147156.34;;;16.95;88.72
6853;BME280;3465;42.144;24.722;2023-04-01T15:05:32;147061.91;;;16.57;94.07
6853;BME280;3465;42.144;24.722;2023-04-01T15:25:59;146860.53;;;15.77;98.73
6853;BME280;3465;42.144;24.722;2023-04-01T15:34:16;146946.09;;;16.11;95.81
6853;BME280;3465;42.144;24.722;2023-04-01T15:43:02;146866.84;;;15.80;96.60
6853;BME280;3465;42.144;24.722;2023-04-01T15:48:19;146907.09;;;15.96;95.37
6853;BME280;3465;42.144;24.722;2023-04-01T15:51:36;146876.88;;;15.84;96.07
6853;BME280;3465;42.144;24.722;2023-04-01T15:56:57;146842.94;;;15.70;96.51
6853;BME280;3465;42.144;24.722;2023-04-01T16:04:55;146821.56;;;15.61;98.16
6853;BME280;3465;42.144;24.722;2023-04-01T16:22:12;146819.06;;;15.60;98.86
6853;BME280;3465;42.144;24.722;2023-04-01T16:24:46;146816.50;;;15.59;98.27
6853;BME280;3465;42.144;24.722;2023-04-01T16:30:19;146781.31;;;15.45;98.14
6853;BME280;3465;42.144;24.722;2023-04-01T16:35:34;146771.28;;;15.41;95.94
6853;BME280;3465;42.144;24.722;2023-04-01T16:38:26;146773.78;;;15.42;95.49
6853;BME280;3465;42.144;24.722;2023-04-01T16:41:10;146761.16;;;15.37;93.67
6853;BME280;3465;42.144;24.722;2023-04-01T16:43:56;146753.59;;;15.34;93.79
6853;BME280;3465;42.144;24.722;2023-04-01T16:46:36;146722.19;;;15.22;98.04
6853;BME280;3465;42.144;24.722;2023-04-01T16:49:16;146653.03;;;14.94;100.00
6853;BME280;3465;42.144;24.722;2023-04-01T16:57:01;146402.94;;;13.94;100.00
6853;BME280;3465;42.144;24.722;2023-04-01T16:59:47;146341.38;;;13.70;100.00
6853;BME280;3465;42.144;24.722;2023-04-01T17:02:23;146245.97;;;13.32;100.00
6853;BME280;3465;42.144;24.722;2023-04-01T17:05:07;146283.66;;;13.47;100.00
6853;BME280;3465;42.144;24.722;2023-04-01T17:08:07;146273.59;;;13.43;100.00
6853;BME280;3465;42.144;24.722;2023-04-01T17:19:11;146289.91;;;13.49;100.00
6853;BME280;3465;42.144;24.722;2023-04-01T17:26:59;146242.22;;;13.30;100.00
6853;BME280;3465;42.144;24.722;2023-04-01T17:35:33;146230.91;;;13.26;100.00
6853;BME280;3465;42.144;24.722;2023-04-01T17:49:04;146261.03;;;13.38;100.00
6853;BME280;3465;42.144;24.722;2023-04-01T17:51:43;146170.69;;;13.02;100.00
6853;BME280;3465;42.144;24.722;2023-04-01T18:05:20;146248.50;;;13.33;100.00
6853;BME280;3465;42.144;24.722;2023-04-01T18:08:10;146252.28;;;13.34;100.00
6853;BME280;3465;42.144;24.722;2023-04-01T18:21:53;146310.00;;;13.57;100.00
6853;BME280;3465;42.144;24.722;2023-04-01T18:27:00;146320.06;;;13.61;100.00
6853;BME280;3465;42.144;24.722;2023-04-01T18:30:20;146289.91;;;13.49;100.00
6853;BME280;3465;42.144;24.722;2023-04-01T18:32:46;146288.69;;;13.49;100.00
6853;BME280;3465;42.144;24.722;2023-04-01T18:35:28;146276.13;;;13.44;100.00
6853;BME280;3465;42.144;24.722;2023-04-01T18:43:38;146180.69;;;13.06;100.00
6853;BME280;3465;42.144;24.722;2023-04-01T18:46:17;146185.72;;;13.08;100.00
6853;BME280;3465;42.144;24.722;2023-04-01T18:49:13;146140.50;;;12.89;100.00
6853;BME280;3465;42.144;24.722;2023-04-01T18:54:24;146071.53;;;12.62;100.00
6853;BME280;3465;42.144;24.722;2023-04-01T18:57:02;146060.19;;;12.57;100.00
6853;BME280;3465;42.144;24.722;2023-04-01T19:05:11;146058.97;;;12.57;100.00
6853;BME280;3465;42.144;24.722;2023-04-01T19:10:37;146031.38;;;12.46;100.00
6853;BME280;3465;42.144;24.722;2023-04-01T19:21:26;145981.19;;;12.26;100.00
6853;BME280;3465;42.144;24.722;2023-04-01T19:32:22;145957.34;;;12.16;100.00
6853;BME280;3465;42.144;24.722;2023-04-01T19:37:52;145943.53;;;12.11;100.00
6853;BME280;3465;42.144;24.722;2023-04-01T19:43:02;145909.72;;;11.97;100.00
6853;BME280;3465;42.144;24.722;2023-04-01T19:45:38;145932.25;;;12.06;100.00
6853;BME280;3465;42.144;24.722;2023-04-01T19:50:58;145873.34;;;11.83;100.00
6853;BME280;3465;42.144;24.722;2023-04-01T19:53:37;145860.81;;;11.78;100.00
6853;BME280;3465;42.144;24.722;2023-04-01T19:56:21;145872.09;;;11.82;100.00
6853;BME280;3465;42.144;24.722;2023-04-01T20:04:33;145854.56;;;11.75;100.00
6853;BME280;3465;42.144;24.722;2023-04-01T20:10:10;145845.78;;;11.72;100.00
6853;BME280;3465;42.144;24.722;2023-04-01T20:15:33;145821.91;;;11.62;100.00
6853;BME280;3465;42.144;24.722;2023-04-01T20:18:02;145771.75;;;11.42;100.00
6853;BME280;3465;42.144;24.722;2023-04-01T20:20:32;145771.75;;;11.42;100.00
6853;BME280;3465;42.144;24.722;2023-04-01T20:23:24;145771.75;;;11.42;100.00
6853;BME280;3465;42.144;24.722;2023-04-01T20:26:20;145756.75;;;11.36;100.00
6853;BME280;3465;42.144;24.722;2023-04-01T20:28:48;145731.66;;;11.26;100.00
6853;BME280;3465;42.144;24.722;2023-04-01T20:31:26;145751.72;;;11.34;100.00
6853;BME280;3465;42.144;24.722;2023-04-01T20:37:00;145707.84;;;11.16;100.00
6853;BME280;3465;42.144;24.722;2023-04-01T20:39:54;145681.56;;;11.06;100.00
6853;BME280;3465;42.144;24.722;2023-04-01T20:45:38;145646.50;;;10.92;100.00
6853;BME280;3465;42.144;24.722;2023-04-01T20:51:04;145691.56;;;11.10;100.00
6853;BME280;3465;42.144;24.722;2023-04-01T20:54:04;145699.06;;;11.13;100.00
6853;BME280;3465;42.144;24.722;2023-04-01T20:59:47;145687.81;;;11.08;100.00
6853;BME280;3465;42.144;24.722;2023-04-01T21:07:28;145667.78;;;11.00;100.00
6853;BME280;3465;42.144;24.722;2023-04-01T21:10:17;145666.53;;;11.00;100.00
6853;BME280;3465;42.144;24.722;2023-04-01T21:13:10;145657.78;;;10.96;100.00
6853;BME280;3465;42.144;24.722;2023-04-01T21:19:09;145622.66;;;10.82;100.00
6853;BME280;3465;42.144;24.722;2023-04-01T21:21:58;145606.41;;;10.76;100.00
6853;BME280;3465;42.144;24.722;2023-04-01T21:34:52;145656.50;;;10.96;100.00
6853;BME280;3465;42.144;24.722;2023-04-01T22:05:09;145603.88;;;10.75;100.00
6853;BME280;3465;42.144;24.722;2023-04-01T22:07:47;145592.63;;;10.70;100.00
6853;BME280;3465;42.144;24.722;2023-04-01T22:13:11;145571.31;;;10.62;100.00
6853;BME280;3465;42.144;24.722;2023-04-01T22:16:06;145576.34;;;10.64;100.00
6853;BME280;3465;42.144;24.722;2023-04-01T22:29:36;145513.75;;;10.39;100.00
6853;BME280;3465;42.144;24.722;2023-04-01T22:32:07;145499.94;;;10.33;100.00
6853;BME280;3465;42.144;24.722;2023-04-01T22:37:32;145482.41;;;10.26;100.00
6853;BME280;3465;42.144;24.722;2023-04-01T22:42:45;145491.19;;;10.30;100.00
6853;BME280;3465;42.144;24.722;2023-04-01T22:48:30;145471.16;;;10.22;100.00
6853;BME280;3465;42.144;24.722;2023-04-01T22:51:18;145468.66;;;10.21;100.00
6853;BME280;3465;42.144;24.722;2023-04-01T22:56:20;145481.19;;;10.26;100.00
6853;BME280;3465;42.144;24.722;2023-04-01T22:59:08;145479.91;;;10.25;100.00